sensor_id;sensor_type;location;lat;lon;timestamp;pressure;altitude;pressure_sealevel;temperature;humidity
62333;BME280;48624;49.812;8.562;2024-02-04T00:01:50;101611.00;;;9.22;100.00
62333;BME280;48624;49.812;8.562;2024-02-04T00:04:15;101613.44;;;9.27;100.00
62333;BME280;48624;49.812;8.562;2024-02-04T00:06:40;101619.25;;;9.14;100.00
62333;BME280;48624;49.812;8.562;2024-02-04T00:09:06;101622.75;;;9.15;100.00
62333;BME280;48624;49.812;8.562;2024-02-04T00:11:31;101623.00;;;9.09;100.00
62333;BME280;48624;49.812;8.562;2024-02-04T00:13:57;101619.47;;;9.30;100.00
62333;BME280;48624;49.812;8.562;2024-02-04T00:16:22;101613.44;;;9.06;100.00
62333;BME280;48624;49.812;8.562;2024-02-04T00:18:47;101602.78;;;9.28;100.00
62333;BME280;48624;49.812;8.562;2024-02-04T00:21:13;101598.91;;;9.16;100.00
62333;BME280;48624;49.812;8.562;2024-02-04T00:23:38;101600.69;;;8.95;100.00
62333;BME280;48624;49.812;8.562;2024-02-04T00:26:03;101601.47;;;9.18;100.00
62333;BME280;48624;49.812;8.562;2024-02-04T00:28:29;101595.94;;;9.04;100.00
62333;BME280;48624;49.812;8.562;2024-02-04T00:30:54;101584.88;;;9.14;100.00
62333;BME280;48624;49.812;8.562;2024-02-04T00:33:23;101599.75;;;9.17;100.00
62333;BME280;48624;49.812;8.562;2024-02-04T00:35:48;101589.97;;;9.19;100.00
62333;BME280;48624;49.812;8.562;2024-02-04T00:38:14;101592.53;;;9.21;100.00
62333;BME280;48624;49.812;8.562;2024-02-04T00:40:39;101589.56;;;9.28;100.00
62333;BME280;48624;49.812;8.562;2024-02-04T00:43:04;101591.69;;;8.99;100.00
62333;BME280;48624;49.812;8.562;2024-02-04T00:45:30;101594.03;;;9.07;100.00
62333;BME280;48624;49.812;8.562;2024-02-04T00:47:55;101581.38;;;9.14;100.00
62333;BME280;48624;49.812;8.562;2024-02-04T00:50:21;101583.09;;;9.15;100.00
62333;BME280;48624;49.812;8.562;2024-02-04T00:52:46;101579.16;;;9.05;100.00
62333;BME280;48624;49.812;8.562;2024-02-04T00:55:11;101583.84;;;8.98;100.00
62333;BME280;48624;49.812;8.562;2024-02-04T00:57:37;101574.72;;;9.26;100.00
62333;BME280;48624;49.812;8.562;2024-02-04T01:00:02;101567.56;;;9.28;100.00
62333;BME280;48624;49.812;8.562;2024-02-04T01:02:28;101568.44;;;9.08;100.00
62333;BME280;48624;49.812;8.562;2024-02-04T01:04:54;101567.56;;;9.28;100.00
62333;BME280;48624;49.812;8.562;2024-02-04T01:07:19;101566.38;;;9.35;100.00
62333;BME280;48624;49.812;8.562;2024-02-04T01:09:45;101583.31;;;8.90;100.00
62333;BME280;48624;49.812;8.562;2024-02-04T01:12:10;101577.63;;;9.20;100.00
62333;BME280;48624;49.812;8.562;2024-02-04T01:14:35;101575.16;;;9.15;100.00
62333;BME280;48624;49.812;8.562;2024-02-04T01:17:01;101587.31;;;9.19;100.00
62333;BME280;48624;49.812;8.562;2024-02-04T01:19:27;101582.63;;;9.26;100.00
62333;BME280;48624;49.812;8.562;2024-02-04T01:21:53;101590.34;;;9.10;100.00
62333;BME280;48624;49.812;8.562;2024-02-04T01:24:18;101590.03;;;9.18;100.00
62333;BME280;48624;49.812;8.562;2024-02-04T01:26:43;101584.78;;;9.37;100.00
62333;BME280;48624;49.812;8.562;2024-02-04T01:29:09;101583.56;;;9.04;100.00
62333;BME280;48624;49.812;8.562;2024-02-04T01:31:34;101579.84;;;9.29;100.00
62333;BME280;48624;49.812;8.562;2024-02-04T01:33:59;101581.72;;;9.27;100.00
62333;BME280;48624;49.812;8.562;2024-02-04T01:36:25;101581.94;;;9.01;100.00
62333;BME280;48624;49.812;8.562;2024-02-04T01:38:50;101578.06;;;9.09;100.00
62333;BME280;48624;49.812;8.562;2024-02-04T01:41:15;101585.75;;;9.15;100.00
62333;BME280;48624;49.812;8.562;2024-02-04T01:43:41;101592.25;;;9.48;99.59
62333;BME280;48624;49.812;8.562;2024-02-04T01:46:06;101594.72;;;9.32;100.00
62333;BME280;48624;49.812;8.562;2024-02-04T01:48:32;101592.28;;;9.27;100.00
62333;BME280;48624;49.812;8.562;2024-02-04T01:50:59;101587.09;;;9.24;100.00
62333;BME280;48624;49.812;8.562;2024-02-04T01:53:26;101588.88;;;9.44;100.00
62333;BME280;48624;49.812;8.562;2024-02-04T01:55:51;101592.50;;;9.41;99.71
62333;BME280;48624;49.812;8.562;2024-02-04T01:58:17;101586.06;;;9.28;100.00
62333;BME280;48624;49.812;8.562;2024-02-04T02:00:42;101586.38;;;9.41;100.00
62333;BME280;48624;49.812;8.562;2024-02-04T02:03:11;101586.81;;;9.51;98.84
62333;BME280;48624;49.812;8.562;2024-02-04T02:05:37;101603.19;;;9.59;98.91
62333;BME280;48624;49.812;8.562;2024-02-04T02:08:02;101585.56;;;9.60;98.95
62333;BME280;48624;49.812;8.562;2024-02-04T02:10:28;101598.94;;;9.36;99.94
62333;BME280;48624;49.812;8.562;2024-02-04T02:12:58;101598.09;;;9.14;100.00
62333;BME280;48624;49.812;8.562;2024-02-04T02:15:28;101586.91;;;9.49;100.00
62333;BME280;48624;49.812;8.562;2024-02-04T02:18:02;101592.94;;;9.11;100.00
62333;BME280;48624;49.812;8.562;2024-02-04T02:20:47;101598.78;;;8.99;100.00
62333;BME280;48624;49.812;8.562;2024-02-04T02:23:30;101598.09;;;9.14;100.00
62333;BME280;48624;49.812;8.562;2024-02-04T02:25:58;101605.69;;;8.81;100.00
62333;BME280;48624;49.812;8.562;2024-02-04T02:28:23;101596.72;;;9.06;100.00
62333;BME280;48624;49.812;8.562;2024-02-04T02:30:48;101596.38;;;8.93;100.00
62333;BME280;48624;49.812;8.562;2024-02-04T02:33:14;101583.91;;;8.96;100.00
62333;BME280;48624;49.812;8.562;2024-02-04T02:35:39;101580.84;;;8.42;100.00
62333;BME280;48624;49.812;8.562;2024-02-04T02:40:58;101576.69;;;8.58;100.00
62333;BME280;48624;49.812;8.562;2024-02-04T02:43:25;101571.94;;;8.44;100.00
62333;BME280;48624;49.812;8.562;2024-02-04T02:45:51;101575.94;;;8.55;100.00
62333;BME280;48624;49.812;8.562;2024-02-04T02:48:17;101573.22;;;8.56;100.00
62333;BME280;48624;49.812;8.562;2024-02-04T02:50:43;101577.72;;;8.54;100.00
62333;BME280;48624;49.812;8.562;2024-02-04T02:53:08;101575.66;;;8.39;100.00
62333;BME280;48624;49.812;8.562;2024-02-04T02:55:33;101573.63;;;8.68;100.00
62333;BME280;48624;49.812;8.562;2024-02-04T02:57:59;101573.75;;;8.65;100.00
62333;BME280;48624;49.812;8.562;2024-02-04T03:00:24;101564.81;;;8.69;100.00
62333;BME280;48624;49.812;8.562;2024-02-04T03:02:49;101567.28;;;8.51;100.00
62333;BME280;48624;49.812;8.562;2024-02-04T03:05:18;101562.88;;;8.72;100.00
62333;BME280;48624;49.812;8.562;2024-02-04T03:07:43;101570.34;;;8.63;100.00
62333;BME280;48624;49.812;8.562;2024-02-04T03:10:09;101548.81;;;8.72;100.00
62333;BME280;48624;49.812;8.562;2024-02-04T03:12:34;101546.81;;;8.77;100.00
62333;BME280;48624;49.812;8.562;2024-02-04T03:15:00;101547.16;;;8.47;100.00
62333;BME280;48624;49.812;8.562;2024-02-04T03:17:25;101538.16;;;8.30;100.00
62333;BME280;48624;49.812;8.562;2024-02-04T03:19:50;101541.31;;;8.39;100.00
62333;BME280;48624;49.812;8.562;2024-02-04T03:22:17;101549.19;;;8.40;100.00
62333;BME280;48624;49.812;8.562;2024-02-04T03:24:42;101550.25;;;8.58;100.00
62333;BME280;48624;49.812;8.562;2024-02-04T03:27:09;101540.69;;;8.33;100.00
62333;BME280;48624;49.812;8.562;2024-02-04T03:29:34;101544.81;;;8.18;100.00
62333;BME280;48624;49.812;8.562;2024-02-04T03:31:59;101532.81;;;8.32;100.00
62333;BME280;48624;49.812;8.562;2024-02-04T03:34:25;101532.16;;;8.27;100.00
62333;BME280;48624;49.812;8.562;2024-02-04T03:36:50;101530.13;;;8.11;100.00
62333;BME280;48624;49.812;8.562;2024-02-04T03:39:15;101533.78;;;8.29;100.00
62333;BME280;48624;49.812;8.562;2024-02-04T03:41:41;101533.78;;;8.29;100.00
62333;BME280;48624;49.812;8.562;2024-02-04T03:44:06;101532.63;;;8.37;100.00
62333;BME280;48624;49.812;8.562;2024-02-04T03:46:31;101541.59;;;8.32;100.00
62333;BME280;48624;49.812;8.562;2024-02-04T03:48:57;101526.31;;;8.41;100.00
62333;BME280;48624;49.812;8.562;2024-02-04T03:51:22;101532.88;;;8.30;100.00
62333;BME280;48624;49.812;8.562;2024-02-04T03:53:49;101534.34;;;8.38;100.00
62333;BME280;48624;49.812;8.562;2024-02-04T03:56:15;101516.72;;;8.38;100.00
62333;BME280;48624;49.812;8.562;2024-02-04T03:58:40;101523.84;;;8.36;100.00
62333;BME280;48624;49.812;8.562;2024-02-04T04:01:09;101530.94;;;8.34;100.00
62333;BME280;48624;49.812;8.562;2024-02-04T04:03:35;101528.22;;;8.15;100.00
62333;BME280;48624;49.812;8.562;2024-02-04T04:06:00;101526.50;;;8.36;100.00
62333;BME280;48624;49.812;8.562;2024-02-04T04:08:25;101520.94;;;8.42;100.00
62333;BME280;48624;49.812;8.562;2024-02-04T04:10:50;101524.78;;;8.35;100.00
62333;BME280;48624;49.812;8.562;2024-02-04T04:13:16;101527.22;;;8.40;100.00
62333;BME280;48624;49.812;8.562;2024-02-04T04:15:43;101527.09;;;8.43;100.00
62333;BME280;48624;49.812;8.562;2024-02-04T04:18:08;101528.25;;;8.36;100.00
62333;BME280;48624;49.812;8.562;2024-02-04T04:20:35;101540.63;;;8.35;100.00
62333;BME280;48624;49.812;8.562;2024-02-04T04:23:01;101540.09;;;8.47;100.00
62333;BME280;48624;49.812;8.562;2024-02-04T04:25:26;101548.16;;;8.44;100.00
62333;BME280;48624;49.812;8.562;2024-02-04T04:27:52;101533.78;;;8.52;100.00
62333;BME280;48624;49.812;8.562;2024-02-04T04:30:17;101532.56;;;8.38;100.00
62333;BME280;48624;49.812;8.562;2024-02-04T04:32:42;101532.69;;;8.35;100.00
62333;BME280;48624;49.812;8.562;2024-02-04T04:35:07;101533.84;;;8.50;100.00
62333;BME280;48624;49.812;8.562;2024-02-04T04:37:33;101536.03;;;8.61;100.00
62333;BME280;48624;49.812;8.562;2024-02-04T04:39:58;101536.44;;;8.52;100.00
62333;BME280;48624;49.812;8.562;2024-02-04T04:42:23;101537.13;;;8.57;100.00
62333;BME280;48624;49.812;8.562;2024-02-04T04:44:49;101530.31;;;8.51;100.00
62333;BME280;48624;49.812;8.562;2024-02-04T04:47:15;101530.47;;;8.46;100.00
62333;BME280;48624;49.812;8.562;2024-02-04T04:49:40;101525.47;;;8.82;100.00
62333;BME280;48624;49.812;8.562;2024-02-04T04:52:06;101536.44;;;8.72;100.00
62333;BME280;48624;49.812;8.562;2024-02-04T04:54:32;101538.56;;;8.64;100.00
62333;BME280;48624;49.812;8.562;2024-02-04T04:56:57;101528.34;;;8.98;100.00
62333;BME280;48624;49.812;8.562;2024-02-04T04:59:22;101536.34;;;8.76;100.00
62333;BME280;48624;49.812;8.562;2024-02-04T05:01:48;101515.97;;;8.78;100.00
62333;BME280;48624;49.812;8.562;2024-02-04T05:04:15;101521.00;;;8.63;100.00
62333;BME280;48624;49.812;8.562;2024-02-04T05:06:41;101527.47;;;8.77;100.00
62333;BME280;48624;49.812;8.562;2024-02-04T05:09:07;101521.72;;;8.67;100.00
62333;BME280;48624;49.812;8.562;2024-02-04T05:11:32;101530.50;;;8.67;100.00
62333;BME280;48624;49.812;8.562;2024-02-04T05:13:57;101535.63;;;8.50;100.00
62333;BME280;48624;49.812;8.562;2024-02-04T05:16:23;101540.72;;;8.54;100.00
62333;BME280;48624;49.812;8.562;2024-02-04T05:18:48;101538.97;;;8.55;100.00
62333;BME280;48624;49.812;8.562;2024-02-04T05:21:14;101529.38;;;8.52;100.00
62333;BME280;48624;49.812;8.562;2024-02-04T05:23:39;101542.19;;;8.39;100.00
62333;BME280;48624;49.812;8.562;2024-02-04T05:26:04;101548.22;;;8.43;100.00
62333;BME280;48624;49.812;8.562;2024-02-04T05:28:30;101544.31;;;8.74;100.00
62333;BME280;48624;49.812;8.562;2024-02-04T05:30:56;101519.59;;;8.96;100.00
62333;BME280;48624;49.812;8.562;2024-02-04T05:33:21;101518.53;;;9.00;100.00
62333;BME280;48624;49.812;8.562;2024-02-04T05:35:47;101518.16;;;8.88;100.00
62333;BME280;48624;49.812;8.562;2024-02-04T05:38:12;101523.88;;;8.98;100.00
62333;BME280;48624;49.812;8.562;2024-02-04T05:40:37;101528.31;;;8.56;100.00
62333;BME280;48624;49.812;8.562;2024-02-04T05:43:03;101541.28;;;8.63;100.00
62333;BME280;48624;49.812;8.562;2024-02-04T05:45:33;101538.09;;;8.75;100.00
62333;BME280;48624;49.812;8.562;2024-02-04T05:47:58;101542.06;;;8.85;100.00
62333;BME280;48624;49.812;8.562;2024-02-04T05:50:24;101543.38;;;8.54;100.00
62333;BME280;48624;49.812;8.562;2024-02-04T05:52:49;101548.16;;;8.87;100.00
62333;BME280;48624;49.812;8.562;2024-02-04T05:55:14;101552.84;;;8.81;100.00
62333;BME280;48624;49.812;8.562;2024-02-04T05:57:40;101540.88;;;8.72;100.00
62333;BME280;48624;49.812;8.562;2024-02-04T06:00:06;101545.38;;;8.91;100.00
62333;BME280;48624;49.812;8.562;2024-02-04T06:02:33;101546.16;;;8.72;100.00
62333;BME280;48624;49.812;8.562;2024-02-04T06:04:58;101546.03;;;8.75;100.00
62333;BME280;48624;49.812;8.562;2024-02-04T06:07:23;101548.41;;;8.81;100.00
62333;BME280;48624;49.812;8.562;2024-02-04T06:09:48;101546.91;;;8.76;100.00
62333;BME280;48624;49.812;8.562;2024-02-04T06:12:14;101538.28;;;8.70;100.00
62333;BME280;48624;49.812;8.562;2024-02-04T06:14:39;101537.41;;;8.92;100.00
62333;BME280;48624;49.812;8.562;2024-02-04T06:17:06;101535.66;;;8.70;100.00
62333;BME280;48624;49.812;8.562;2024-02-04T06:19:34;101536.53;;;8.71;100.00
62333;BME280;48624;49.812;8.562;2024-02-04T06:21:59;101536.03;;;8.82;100.00
62333;BME280;48624;49.812;8.562;2024-02-04T06:24:24;101538.50;;;8.86;100.00
62333;BME280;48624;49.812;8.562;2024-02-04T06:26:49;101544.06;;;8.80;100.00
62333;BME280;48624;49.812;8.562;2024-02-04T06:29:15;101539.91;;;8.95;100.00
62333;BME280;48624;49.812;8.562;2024-02-04T06:31:44;101542.06;;;9.06;100.00
62333;BME280;48624;49.812;8.562;2024-02-04T06:34:09;101534.94;;;9.08;100.00
62333;BME280;48624;49.812;8.562;2024-02-04T06:36:34;101528.03;;;9.04;100.00
62333;BME280;48624;49.812;8.562;2024-02-04T06:39:00;101533.59;;;8.77;100.00
62333;BME280;48624;49.812;8.562;2024-02-04T06:41:25;101523.66;;;8.84;100.00
62333;BME280;48624;49.812;8.562;2024-02-04T06:43:50;101533.50;;;8.80;100.00
62333;BME280;48624;49.812;8.562;2024-02-04T06:46:24;101526.16;;;8.87;100.00
62333;BME280;48624;49.812;8.562;2024-02-04T06:48:50;101532.75;;;8.97;100.00
62333;BME280;48624;49.812;8.562;2024-02-04T06:51:15;101516.34;;;9.10;100.00
62333;BME280;48624;49.812;8.562;2024-02-04T06:53:40;101537.06;;;8.79;100.00
62333;BME280;48624;49.812;8.562;2024-02-04T06:56:06;101530.38;;;8.91;100.00
62333;BME280;48624;49.812;8.562;2024-02-04T06:58:32;101547.81;;;8.74;100.00
62333;BME280;48624;49.812;8.562;2024-02-04T07:00:57;101540.28;;;9.07;100.00
62333;BME280;48624;49.812;8.562;2024-02-04T07:03:23;101545.00;;;8.79;100.00
62333;BME280;48624;49.812;8.562;2024-02-04T07:05:48;101542.34;;;8.79;100.00
62333;BME280;48624;49.812;8.562;2024-02-04T07:08:13;101543.53;;;8.72;100.00
62333;BME280;48624;49.812;8.562;2024-02-04T07:10:39;101535.34;;;8.78;100.00
62333;BME280;48624;49.812;8.562;2024-02-04T07:13:04;101523.50;;;8.87;100.00
62333;BME280;48624;49.812;8.562;2024-02-04T07:15:29;101523.25;;;8.93;100.00
62333;BME280;48624;49.812;8.562;2024-02-04T07:17:56;101523.97;;;8.76;100.00
62333;BME280;48624;49.812;8.562;2024-02-04T07:20:21;101521.75;;;8.87;100.00
62333;BME280;48624;49.812;8.562;2024-02-04T07:22:47;101515.25;;;8.74;100.00
62333;BME280;48624;49.812;8.562;2024-02-04T07:25:12;101516.03;;;8.76;100.00
62333;BME280;48624;49.812;8.562;2024-02-04T07:27:37;101529.13;;;8.58;100.00
62333;BME280;48624;49.812;8.562;2024-02-04T07:30:03;101547.63;;;8.79;100.00
62333;BME280;48624;49.812;8.562;2024-02-04T07:32:29;101541.19;;;9.06;100.00
62333;BME280;48624;49.812;8.562;2024-02-04T07:34:55;101537.25;;;8.74;100.00
62333;BME280;48624;49.812;8.562;2024-02-04T07:37:20;101532.41;;;8.84;100.00
62333;BME280;48624;49.812;8.562;2024-02-04T07:39:45;101536.88;;;8.84;100.00
62333;BME280;48624;49.812;8.562;2024-02-04T07:42:11;101536.19;;;8.58;100.00
62333;BME280;48624;49.812;8.562;2024-02-04T07:44:36;101538.78;;;8.80;100.00
62333;BME280;48624;49.812;8.562;2024-02-04T07:47:01;101535.78;;;8.88;100.00
62333;BME280;48624;49.812;8.562;2024-02-04T07:49:26;101543.47;;;8.73;100.00
62333;BME280;48624;49.812;8.562;2024-02-04T07:51:52;101529.06;;;8.81;100.00
62333;BME280;48624;49.812;8.562;2024-02-04T07:54:17;101536.78;;;8.65;100.00
62333;BME280;48624;49.812;8.562;2024-02-04T07:56:42;101544.31;;;8.53;100.00
62333;BME280;48624;49.812;8.562;2024-02-04T07:59:08;101546.56;;;8.83;100.00
62333;BME280;48624;49.812;8.562;2024-02-04T08:01:33;101537.84;;;8.81;100.00
62333;BME280;48624;49.812;8.562;2024-02-04T08:03:58;101542.84;;;8.67;100.00
62333;BME280;48624;49.812;8.562;2024-02-04T08:06:24;101544.13;;;8.79;100.00
62333;BME280;48624;49.812;8.562;2024-02-04T08:08:50;101548.94;;;8.69;100.00
62333;BME280;48624;49.812;8.562;2024-02-04T08:11:18;101549.75;;;8.71;100.00
62333;BME280;48624;49.812;8.562;2024-02-04T08:13:44;101543.66;;;9.10;100.00
62333;BME280;48624;49.812;8.562;2024-02-04T08:16:10;101543.66;;;8.90;100.00
62333;BME280;48624;49.812;8.562;2024-02-04T08:18:35;101540.75;;;8.75;100.00
62333;BME280;48624;49.812;8.562;2024-02-04T08:21:01;101536.78;;;8.65;100.00
62333;BME280;48624;49.812;8.562;2024-02-04T08:23:26;101535.91;;;9.06;100.00
62333;BME280;48624;49.812;8.562;2024-02-04T08:25:51;101528.94;;;8.84;100.00
62333;BME280;48624;49.812;8.562;2024-02-04T08:28:16;101535.75;;;8.69;100.00
62333;BME280;48624;49.812;8.562;2024-02-04T08:30:42;101526.09;;;8.88;100.00
62333;BME280;48624;49.812;8.562;2024-02-04T08:33:07;101513.72;;;8.68;100.00
62333;BME280;48624;49.812;8.562;2024-02-04T08:35:33;101513.53;;;8.73;100.00
62333;BME280;48624;49.812;8.562;2024-02-04T08:37:59;101521.25;;;8.98;100.00
62333;BME280;48624;49.812;8.562;2024-02-04T08:40:24;101531.25;;;8.92;100.00
62333;BME280;48624;49.812;8.562;2024-02-04T08:42:49;101526.00;;;9.11;100.00
62333;BME280;48624;49.812;8.562;2024-02-04T08:45:15;101532.00;;;9.14;100.00
62333;BME280;48624;49.812;8.562;2024-02-04T08:47:40;101527.94;;;9.07;100.00
62333;BME280;48624;49.812;8.562;2024-02-04T08:50:06;101529.28;;;9.16;100.00
62333;BME280;48624;49.812;8.562;2024-02-04T08:52:31;101537.44;;;9.11;100.00
62333;BME280;48624;49.812;8.562;2024-02-04T08:54:57;101528.91;;;9.05;100.00
62333;BME280;48624;49.812;8.562;2024-02-04T08:57:23;101525.66;;;9.19;100.00
62333;BME280;48624;49.812;8.562;2024-02-04T08:59:49;101524.94;;;9.15;100.00
62333;BME280;48624;49.812;8.562;2024-02-04T09:02:14;101532.63;;;9.40;100.00
62333;BME280;48624;49.812;8.562;2024-02-04T09:04:39;101528.97;;;9.43;100.00
62333;BME280;48624;49.812;8.562;2024-02-04T09:07:07;101533.25;;;9.65;100.00
62333;BME280;48624;49.812;8.562;2024-02-04T09:09:33;101516.59;;;9.24;100.00
62333;BME280;48624;49.812;8.562;2024-02-04T09:11:58;101513.63;;;9.51;100.00
62333;BME280;48624;49.812;8.562;2024-02-04T09:14:23;101502.47;;;9.44;100.00
62333;BME280;48624;49.812;8.562;2024-02-04T09:16:48;101488.81;;;9.54;100.00
62333;BME280;48624;49.812;8.562;2024-02-04T09:19:14;101483.44;;;9.55;100.00
62333;BME280;48624;49.812;8.562;2024-02-04T09:21:39;101499.19;;;9.58;100.00
62333;BME280;48624;49.812;8.562;2024-02-04T09:24:04;101516.97;;;9.55;100.00
62333;BME280;48624;49.812;8.562;2024-02-04T09:26:30;101517.28;;;9.68;100.00
62333;BME280;48624;49.812;8.562;2024-02-04T09:28:55;101507.59;;;9.67;100.00
62333;BME280;48624;49.812;8.562;2024-02-04T09:31:20;101519.53;;;9.76;100.00
62333;BME280;48624;49.812;8.562;2024-02-04T09:33:46;101513.69;;;9.69;100.00
62333;BME280;48624;49.812;8.562;2024-02-04T09:36:11;101515.53;;;9.67;100.00
62333;BME280;48624;49.812;8.562;2024-02-04T09:38:36;101517.88;;;9.92;100.00
62333;BME280;48624;49.812;8.562;2024-02-04T09:41:02;101531.41;;;9.86;100.00
62333;BME280;48624;49.812;8.562;2024-02-04T09:43:31;101526.09;;;9.86;100.00
62333;BME280;48624;49.812;8.562;2024-02-04T09:45:57;101517.56;;;9.98;100.00
62333;BME280;48624;49.812;8.562;2024-02-04T09:48:22;101514.56;;;10.06;99.55
62333;BME280;48624;49.812;8.562;2024-02-04T09:50:51;101510.91;;;10.26;97.59
62333;BME280;48624;49.812;8.562;2024-02-04T09:53:21;101505.16;;;10.36;97.85
62333;BME280;48624;49.812;8.562;2024-02-04T09:55:49;101500.94;;;10.14;98.11
62333;BME280;48624;49.812;8.562;2024-02-04T09:58:15;101504.75;;;10.08;98.44
62333;BME280;48624;49.812;8.562;2024-02-04T10:00:41;101501.34;;;10.06;99.47
62333;BME280;48624;49.812;8.562;2024-02-04T10:03:09;101503.28;;;10.03;99.08
62333;BME280;48624;49.812;8.562;2024-02-04T10:05:34;101503.28;;;9.83;99.97
62333;BME280;48624;49.812;8.562;2024-02-04T10:08:00;101499.66;;;9.86;100.00
62333;BME280;48624;49.812;8.562;2024-02-04T10:10:25;101502.63;;;9.97;99.49
62333;BME280;48624;49.812;8.562;2024-02-04T10:12:51;101504.91;;;10.23;98.14
62333;BME280;48624;49.812;8.562;2024-02-04T10:15:16;101510.22;;;10.40;97.92
62333;BME280;48624;49.812;8.562;2024-02-04T10:17:44;101509.63;;;10.35;96.92
62333;BME280;48624;49.812;8.562;2024-02-04T10:20:10;101525.78;;;10.11;99.40
62333;BME280;48624;49.812;8.562;2024-02-04T10:22:37;101525.06;;;10.08;99.81
62333;BME280;48624;49.812;8.562;2024-02-04T10:25:09;101512.97;;;10.21;98.64
62333;BME280;48624;49.812;8.562;2024-02-04T10:27:37;101519.50;;;10.32;97.37
62333;BME280;48624;49.812;8.562;2024-02-04T10:30:03;101522.22;;;10.30;97.56
62333;BME280;48624;49.812;8.562;2024-02-04T10:32:30;101524.34;;;10.04;98.96
62333;BME280;48624;49.812;8.562;2024-02-04T10:34:57;101513.69;;;10.06;99.25
62333;BME280;48624;49.812;8.562;2024-02-04T10:37:23;101511.72;;;9.92;99.80
62333;BME280;48624;49.812;8.562;2024-02-04T10:39:48;101514.97;;;9.79;99.29
62333;BME280;48624;49.812;8.562;2024-02-04T10:42:15;101518.94;;;9.88;99.07
62333;BME280;48624;49.812;8.562;2024-02-04T10:44:42;101496.63;;;10.31;96.67
62333;BME280;48624;49.812;8.562;2024-02-04T10:47:10;101505.94;;;10.20;97.24
62333;BME280;48624;49.812;8.562;2024-02-04T10:49:41;101512.38;;;10.14;98.46
62333;BME280;48624;49.812;8.562;2024-02-04T10:52:12;101519.50;;;9.95;98.36
62333;BME280;48624;49.812;8.562;2024-02-04T10:54:38;101506.44;;;9.92;98.55
62333;BME280;48624;49.812;8.562;2024-02-04T10:57:05;101496.84;;;9.89;98.84
62333;BME280;48624;49.812;8.562;2024-02-04T10:59:36;101495.63;;;9.96;99.34
62333;BME280;48624;49.812;8.562;2024-02-04T11:02:05;101490.28;;;9.79;99.60
62333;BME280;48624;49.812;8.562;2024-02-04T11:04:31;101494.41;;;9.84;99.28
62333;BME280;48624;49.812;8.562;2024-02-04T11:07:02;101491.78;;;10.21;99.14
62333;BME280;48624;49.812;8.562;2024-02-04T11:09:28;101496.31;;;10.00;98.89
62333;BME280;48624;49.812;8.562;2024-02-04T11:11:55;101487.22;;;10.06;99.71
62333;BME280;48624;49.812;8.562;2024-02-04T11:14:22;101486.97;;;9.93;99.52
62333;BME280;48624;49.812;8.562;2024-02-04T11:17:08;101486.94;;;10.12;99.21
62333;BME280;48624;49.812;8.562;2024-02-04T11:19:55;101475.75;;;9.88;100.00
62333;BME280;48624;49.812;8.562;2024-02-04T11:27:33;101462.88;;;10.17;100.00
62333;BME280;48624;49.812;8.562;2024-02-04T11:29:59;101446.13;;;10.34;98.65
62333;BME280;48624;49.812;8.562;2024-02-04T11:32:24;101445.88;;;10.38;98.66
62333;BME280;48624;49.812;8.562;2024-02-04T11:34:50;101442.28;;;10.22;99.48
62333;BME280;48624;49.812;8.562;2024-02-04T11:37:17;101435.06;;;10.25;98.05
62333;BME280;48624;49.812;8.562;2024-02-04T11:39:52;101428.22;;;10.39;98.56
62333;BME280;48624;49.812;8.562;2024-02-04T11:42:19;101443.47;;;10.34;99.43
62333;BME280;48624;49.812;8.562;2024-02-04T11:44:46;101441.16;;;10.45;98.64
62333;BME280;48624;49.812;8.562;2024-02-04T11:47:11;101437.97;;;10.56;96.78
62333;BME280;48624;49.812;8.562;2024-02-04T11:49:53;101437.22;;;10.35;97.88
62333;BME280;48624;49.812;8.562;2024-02-04T11:52:19;101430.19;;;10.53;96.26
62333;BME280;48624;49.812;8.562;2024-02-04T11:54:44;101447.00;;;10.34;97.87
62333;BME280;48624;49.812;8.562;2024-02-04T11:57:10;101444.47;;;10.31;98.12
62333;BME280;48624;49.812;8.562;2024-02-04T11:59:36;101446.44;;;10.45;97.63
62333;BME280;48624;49.812;8.562;2024-02-04T12:02:05;101446.19;;;10.32;98.69
62333;BME280;48624;49.812;8.562;2024-02-04T12:04:31;101436.94;;;10.59;96.10
62333;BME280;48624;49.812;8.562;2024-02-04T12:06:57;101452.44;;;10.49;97.08
62333;BME280;48624;49.812;8.562;2024-02-04T12:09:23;101447.94;;;10.51;97.15
62333;BME280;48624;49.812;8.562;2024-02-04T12:11:49;101449.31;;;10.40;97.77
62333;BME280;48624;49.812;8.562;2024-02-04T12:14:14;101444.88;;;10.41;97.64
62333;BME280;48624;49.812;8.562;2024-02-04T12:16:42;101443.03;;;10.43;97.72
62333;BME280;48624;49.812;8.562;2024-02-04T12:19:07;101441.75;;;10.33;98.14
62333;BME280;48624;49.812;8.562;2024-02-04T12:21:33;101432.41;;;10.25;99.07
62333;BME280;48624;49.812;8.562;2024-02-04T12:23:59;101410.28;;;10.62;97.08
62333;BME280;48624;49.812;8.562;2024-02-04T12:26:25;101416.59;;;10.41;97.03
62333;BME280;48624;49.812;8.562;2024-02-04T12:28:50;101420.09;;;10.60;97.08
62333;BME280;48624;49.812;8.562;2024-02-04T12:31:20;101430.72;;;10.42;97.37
62333;BME280;48624;49.812;8.562;2024-02-04T12:33:52;101412.88;;;10.46;97.97
62333;BME280;48624;49.812;8.562;2024-02-04T12:36:19;101420.09;;;10.60;96.79
62333;BME280;48624;49.812;8.562;2024-02-04T12:38:51;101420.88;;;10.62;97.05
62333;BME280;48624;49.812;8.562;2024-02-04T12:41:17;101403.19;;;10.62;96.43
62333;BME280;48624;49.812;8.562;2024-02-04T12:43:42;101405.06;;;10.43;97.81
62333;BME280;48624;49.812;8.562;2024-02-04T12:46:12;101403.19;;;10.62;97.32
62333;BME280;48624;49.812;8.562;2024-02-04T12:48:38;101401.06;;;10.69;96.68
62333;BME280;48624;49.812;8.562;2024-02-04T12:51:04;101399.22;;;10.53;96.75
62333;BME280;48624;49.812;8.562;2024-02-04T12:53:30;101397.97;;;10.61;97.05